Time;durP1;ratioP1;P1;durP2;ratioP2;P2;SDS_P1;SDS_P2;PMS_P1;PMS_P2;Temp;Humidity;BMP_temperature;BMP_pressure;BME280_temperature;BME280_humidity;BME280_pressure;Samples;Min_cycle;Max_cycle;Signal;HPM_P1;HPM_P2
2022/04/15 00:01:24;;;;;;;3.95;2.00;;;;;;;;;;5008134;28;20096;-72
2022/04/15 00:03:50;;;;;;;3.03;1.27;;;;;;;;;;5022852;28;20030;-72
2022/04/15 00:06:21;;;;;;;2.38;1.10;;;;;;;;;;5017246;28;20097;-72
2022/04/15 00:08:48;;;;;;;2.97;1.10;;;;;;;;;;5013376;28;20374;-72
2022/04/15 00:11:14;;;;;;;2.83;1.10;;;;;;;;;;5009626;28;20115;-79
2022/04/15 00:13:41;;;;;;;3.40;1.23;;;;;;;;;;5024081;28;20029;-72
2022/04/15 00:16:08;;;;;;;1.75;1.25;;;;;;;;;;5016070;28;20493;-72
2022/04/15 00:18:34;;;;;;;2.17;1.10;;;;;;;;;;5009790;28;20513;-72
2022/04/15 00:21:01;;;;;;;1.70;1.20;;;;;;;;;;5018520;28;20025;-72
2022/04/15 00:23:28;;;;;;;1.98;1.42;;;;;;;;;;5008706;28;20038;-72
2022/04/15 00:25:54;;;;;;;3.28;1.40;;;;;;;;;;5009066;28;20133;-74
2022/04/15 00:28:21;;;;;;;2.72;1.20;;;;;;;;;;5016470;28;20095;-71
2022/04/15 00:30:47;;;;;;;2.88;1.48;;;;;;;;;;5009852;28;20213;-72
2022/04/15 00:33:13;;;;;;;3.45;1.67;;;;;;;;;;5008463;28;20079;-72
2022/04/15 00:35:40;;;;;;;4.25;1.20;;;;;;;;;;5015203;28;20032;-72
2022/04/15 00:38:06;;;;;;;2.22;1.08;;;;;;;;;;5020553;28;20072;-75
2022/04/15 00:40:33;;;;;;;3.08;1.10;;;;;;;;;;5009210;28;20049;-72
2022/04/15 00:42:59;;;;;;;2.42;1.00;;;;;;;;;;5008391;28;20061;-72
2022/04/15 00:45:26;;;;;;;2.60;1.30;;;;;;;;;;5008134;28;20101;-72
2022/04/15 00:47:53;;;;;;;2.83;1.10;;;;;;;;;;5008544;28;20030;-75
2022/04/15 00:50:29;;;;;;;3.42;1.38;;;;;;;;;;5012899;28;20049;-72
2022/04/15 00:53:01;;;;;;;3.20;1.02;;;;;;;;;;5027112;28;20088;-72
2022/04/15 00:55:27;;;;;;;3.20;1.00;;;;;;;;;;5020228;28;20037;-72
2022/04/15 00:57:55;;;;;;;3.63;1.50;;;;;;;;;;5015947;28;20042;-79
2022/04/15 01:00:22;;;;;;;1.77;1.30;;;;;;;;;;5008736;28;20563;-73
2022/04/15 01:02:48;;;;;;;2.55;1.70;;;;;;;;;;5015651;28;20116;-72
2022/04/15 01:05:15;;;;;;;4.28;1.40;;;;;;;;;;5011500;28;20026;-72
2022/04/15 01:07:42;;;;;;;3.55;1.65;;;;;;;;;;5025496;28;20026;-73
2022/04/15 01:10:09;;;;;;;3.00;1.60;;;;;;;;;;5012415;28;20511;-73
2022/04/15 01:12:39;;;;;;;3.13;1.60;;;;;;;;;;5012946;28;20022;-72
2022/04/15 01:15:10;;;;;;;3.42;1.50;;;;;;;;;;5012672;28;20401;-72
2022/04/15 01:17:36;;;;;;;3.25;1.20;;;;;;;;;;5009765;28;20038;-72
2022/04/15 01:20:04;;;;;;;2.60;1.63;;;;;;;;;;5012661;28;20030;-72
2022/04/15 01:22:36;;;;;;;2.92;1.67;;;;;;;;;;5012639;28;20211;-74
2022/04/15 01:25:04;;;;;;;4.10;1.90;;;;;;;;;;5004367;28;20036;-72
2022/04/15 01:27:34;;;;;;;4.13;1.75;;;;;;;;;;5011007;28;20030;-72
2022/04/15 01:30:00;;;;;;;3.05;1.40;;;;;;;;;;5011822;28;20037;-72
2022/04/15 01:32:26;;;;;;;2.33;1.40;;;;;;;;;;5005946;28;20037;-72
2022/04/15 01:34:52;;;;;;;2.42;1.38;;;;;;;;;;5010236;28;20029;-73
2022/04/15 01:37:20;;;;;;;3.95;1.20;;;;;;;;;;5008605;28;20033;-72
2022/04/15 01:39:47;;;;;;;2.10;1.20;;;;;;;;;;5005415;28;20099;-72
2022/04/15 01:42:14;;;;;;;3.53;1.13;;;;;;;;;;5013151;28;20033;-72
2022/04/15 01:44:41;;;;;;;4.70;1.27;;;;;;;;;;5011042;28;20395;-72
2022/04/15 01:47:08;;;;;;;1.30;1.10;;;;;;;;;;5010410;28;20030;-72
2022/04/15 01:49:34;;;;;;;2.70;1.30;;;;;;;;;;5010274;28;20037;-69
2022/04/15 01:52:00;;;;;;;3.25;1.17;;;;;;;;;;5006452;28;20076;-72
2022/04/15 01:54:29;;;;;;;5.97;1.25;;;;;;;;;;5013766;28;20025;-72
2022/04/15 01:56:55;;;;;;;2.55;1.58;;;;;;;;;;5004436;28;20640;-72
2022/04/15 01:59:22;;;;;;;2.13;1.20;;;;;;;;;;5009027;28;20077;-73
2022/04/15 02:01:48;;;;;;;2.35;1.30;;;;;;;;;;5007205;28;20568;-72
2022/04/15 02:04:14;;;;;;;2.67;1.30;;;;;;;;;;5007585;28;20029;-72
2022/04/15 02:06:40;;;;;;;3.85;1.70;;;;;;;;;;5005970;28;20025;-72
2022/04/15 02:09:06;;;;;;;3.30;1.38;;;;;;;;;;5006757;28;20540;-70
2022/04/15 02:11:34;;;;;;;2.38;1.30;;;;;;;;;;5010279;28;20088;-71
2022/04/15 02:14:00;;;;;;;1.83;1.23;;;;;;;;;;5024670;28;20573;-70
2022/04/15 02:16:26;;;;;;;5.60;1.55;;;;;;;;;;5017956;28;20045;-71
2022/04/15 02:18:52;;;;;;;2.70;1.30;;;;;;;;;;5007081;28;20100;-70
2022/04/15 02:21:18;;;;;;;1.95;1.00;;;;;;;;;;5010131;28;20033;-70
2022/04/15 02:23:44;;;;;;;1.77;1.23;;;;;;;;;;5015331;28;20088;-84
2022/04/15 02:26:10;;;;;;;1.75;1.02;;;;;;;;;;5012509;28;20049;-70
2022/04/15 02:28:36;;;;;;;2.00;1.10;;;;;;;;;;5010644;28;20030;-70
2022/04/15 02:31:02;;;;;;;7.38;1.50;;;;;;;;;;5008464;28;20108;-71
2022/04/15 02:33:29;;;;;;;1.38;1.10;;;;;;;;;;5012419;28;20040;-71
2022/04/15 02:35:55;;;;;;;2.53;1.40;;;;;;;;;;5015614;28;20033;-71
2022/04/15 02:38:21;;;;;;;3.28;1.17;;;;;;;;;;5011622;28;20040;-71
2022/04/15 02:40:47;;;;;;;1.40;1.10;;;;;;;;;;5011226;28;20033;-71
2022/04/15 02:43:14;;;;;;;4.00;1.00;;;;;;;;;;5012225;28;20041;-70
2022/04/15 02:45:40;;;;;;;1.60;1.20;;;;;;;;;;5016053;28;20026;-70
2022/04/15 02:48:06;;;;;;;4.05;1.27;;;;;;;;;;5005545;28;20029;-71
2022/04/15 02:50:33;;;;;;;3.25;1.60;;;;;;;;;;5010464;28;20068;-70
2022/04/15 02:53:01;;;;;;;2.75;1.40;;;;;;;;;;5006957;28;20054;-70
2022/04/15 02:55:27;;;;;;;4.22;2.00;;;;;;;;;;5010513;28;20084;-71
2022/04/15 02:57:53;;;;;;;6.85;2.40;;;;;;;;;;5007617;28;20037;-70
2022/04/15 03:00:20;;;;;;;4.05;1.77;;;;;;;;;;5005848;28;20034;-71
2022/04/15 03:02:46;;;;;;;5.22;2.58;;;;;;;;;;5013546;28;20030;-70
2022/04/15 03:05:12;;;;;;;4.30;2.38;;;;;;;;;;5009095;28;20026;-71
2022/04/15 03:07:38;;;;;;;4.93;2.40;;;;;;;;;;5010388;28;20057;-70
2022/04/15 03:10:08;;;;;;;3.95;1.90;;;;;;;;;;5010027;28;20129;-70
2022/04/15 03:12:35;;;;;;;5.50;1.70;;;;;;;;;;5008607;28;20021;-70
2022/04/15 03:15:01;;;;;;;4.15;1.75;;;;;;;;;;5004913;28;20391;-71
2022/04/15 03:17:27;;;;;;;3.65;1.50;;;;;;;;;;5009163;28;20041;-71
2022/04/15 03:19:54;;;;;;;2.28;1.48;;;;;;;;;;5011405;28;20029;-76
2022/04/15 03:22:20;;;;;;;3.72;1.60;;;;;;;;;;5011207;28;20029;-70
2022/04/15 03:24:48;;;;;;;2.85;1.30;;;;;;;;;;5009640;28;20041;-70
2022/04/15 03:27:15;;;;;;;3.10;1.58;;;;;;;;;;5006083;28;20034;-70
2022/04/15 03:29:43;;;;;;;2.65;1.50;;;;;;;;;;5010113;28;20147;-70
2022/04/15 03:32:09;;;;;;;2.97;1.52;;;;;;;;;;5002815;28;20029;-71
2022/04/15 03:34:36;;;;;;;2.10;1.58;;;;;;;;;;5018581;28;20025;-70
2022/04/15 03:37:03;;;;;;;6.03;1.85;;;;;;;;;;5010584;28;20033;-70
2022/04/15 03:39:29;;;;;;;2.47;1.70;;;;;;;;;;5018824;28;20025;-70
2022/04/15 03:41:55;;;;;;;2.85;1.65;;;;;;;;;;5010282;28;20029;-71
2022/04/15 03:44:21;;;;;;;2.30;1.63;;;;;;;;;;5007954;28;20037;-70
2022/04/15 03:46:47;;;;;;;3.15;1.50;;;;;;;;;;5017461;28;20243;-71
2022/04/15 03:49:13;;;;;;;2.80;1.33;;;;;;;;;;5011419;28;20030;-70
2022/04/15 03:51:40;;;;;;;5.22;1.80;;;;;;;;;;5015793;28;20029;-71
2022/04/15 03:54:06;;;;;;;3.10;1.60;;;;;;;;;;5016436;28;20033;-71
2022/04/15 03:56:33;;;;;;;2.20;1.50;;;;;;;;;;5000812;28;20057;-71
2022/04/15 03:58:59;;;;;;;3.63;1.60;;;;;;;;;;5001361;28;20176;-70
2022/04/15 04:01:25;;;;;;;1.98;1.40;;;;;;;;;;5007773;28;20064;-71
2022/04/15 04:03:52;;;;;;;3.00;1.42;;;;;;;;;;5007771;28;20086;-71
2022/04/15 04:06:18;;;;;;;3.33;1.50;;;;;;;;;;5008727;28;20853;-70
2022/04/15 04:08:49;;;;;;;3.08;1.48;;;;;;;;;;5009459;28;20030;-71
2022/04/15 04:11:18;;;;;;;4.47;1.65;;;;;;;;;;5019793;28;20108;-71
2022/04/15 04:13:44;;;;;;;1.90;1.30;;;;;;;;;;5005935;28;20080;-71
2022/04/15 04:16:14;;;;;;;3.65;1.58;;;;;;;;;;5014429;28;20053;-71
2022/04/15 04:18:41;;;;;;;3.65;1.60;;;;;;;;;;5007427;28;20219;-71
2022/04/15 04:21:08;;;;;;;4.25;1.42;;;;;;;;;;5021963;28;20036;-71
2022/04/15 04:23:35;;;;;;;2.35;1.63;;;;;;;;;;5015805;28;20037;-71
2022/04/15 04:26:01;;;;;;;4.25;1.58;;;;;;;;;;5019208;28;20050;-70
2022/04/15 04:28:27;;;;;;;2.30;1.70;;;;;;;;;;5011681;28;20219;-71
2022/04/15 04:30:53;;;;;;;3.35;1.33;;;;;;;;;;5010606;28;20033;-71
2022/04/15 04:33:20;;;;;;;2.63;1.40;;;;;;;;;;5009418;28;20853;-70
2022/04/15 04:35:46;;;;;;;4.15;1.70;;;;;;;;;;5016615;28;20033;-71
2022/04/15 04:38:12;;;;;;;2.45;1.50;;;;;;;;;;5022100;28;20041;-71
2022/04/15 04:40:39;;;;;;;3.67;1.60;;;;;;;;;;5020248;28;20025;-71
2022/04/15 04:43:05;;;;;;;2.88;1.52;;;;;;;;;;5010671;28;20041;-71
2022/04/15 04:45:33;;;;;;;1.75;1.40;;;;;;;;;;5014123;28;20026;-70
2022/04/15 04:48:00;;;;;;;1.98;1.30;;;;;;;;;;4997808;28;20091;-70
2022/04/15 04:50:28;;;;;;;2.92;1.38;;;;;;;;;;5017717;28;20026;-70
2022/04/15 04:52:54;;;;;;;3.42;1.50;;;;;;;;;;5004742;28;20037;-71
2022/04/15 04:55:20;;;;;;;4.15;1.65;;;;;;;;;;5003731;28;20642;-71
2022/04/15 04:57:46;;;;;;;1.90;1.30;;;;;;;;;;5003680;28;20113;-71
2022/04/15 05:00:13;;;;;;;3.13;1.58;;;;;;;;;;5015092;28;20079;-70
2022/04/15 05:02:40;;;;;;;3.13;1.63;;;;;;;;;;5009998;28;20037;-70
2022/04/15 05:05:06;;;;;;;3.22;1.50;;;;;;;;;;5013391;28;20030;-71
2022/04/15 05:07:33;;;;;;;5.20;1.88;;;;;;;;;;5021300;28;20498;-70
2022/04/15 05:09:59;;;;;;;1.95;1.15;;;;;;;;;;5022215;28;20030;-70
2022/04/15 05:12:25;;;;;;;3.35;1.55;;;;;;;;;;5021950;28;20037;-70
2022/04/15 05:14:51;;;;;;;4.00;1.98;;;;;;;;;;5007927;28;20743;-71
2022/04/15 05:17:18;;;;;;;2.47;1.70;;;;;;;;;;5019642;28;20045;-72
2022/04/15 05:19:45;;;;;;;3.97;1.80;;;;;;;;;;5013237;28;20049;-71
2022/04/15 05:22:11;;;;;;;3.47;1.80;;;;;;;;;;5020909;28;20076;-70
2022/04/15 05:24:37;;;;;;;7.90;1.92;;;;;;;;;;5011224;28;20038;-71
2022/04/15 05:27:04;;;;;;;3.95;2.08;;;;;;;;;;5016051;28;20029;-70
2022/04/15 05:29:30;;;;;;;2.25;1.50;;;;;;;;;;5010593;28;20026;-70
2022/04/15 05:31:56;;;;;;;5.65;2.60;;;;;;;;;;5017359;28;20274;-70
2022/04/15 05:34:22;;;;;;;6.07;2.28;;;;;;;;;;5018933;28;20041;-70
2022/04/15 05:36:49;;;;;;;2.97;1.85;;;;;;;;;;5003069;28;20036;-70
2022/04/15 05:39:15;;;;;;;6.72;2.05;;;;;;;;;;5005627;28;20029;-70
2022/04/15 05:41:41;;;;;;;2.63;1.80;;;;;;;;;;5011906;28;20036;-71
2022/04/15 05:44:08;;;;;;;3.05;1.88;;;;;;;;;;5002625;28;20498;-71
2022/04/15 05:46:38;;;;;;;2.38;1.50;;;;;;;;;;5007460;28;20048;-71
2022/04/15 05:49:13;;;;;;;3.20;1.60;;;;;;;;;;5011637;28;20037;-70
2022/04/15 05:51:39;;;;;;;3.45;1.88;;;;;;;;;;5021374;28;20017;-71
2022/04/15 05:54:05;;;;;;;5.15;2.00;;;;;;;;;;5003453;28;20143;-71
2022/04/15 05:56:31;;;;;;;10.20;4.85;;;;;;;;;;5008398;28;20105;-71
2022/04/15 05:58:57;;;;;;;9.85;3.90;;;;;;;;;;5014278;28;20048;-70
2022/04/15 06:01:23;;;;;;;9.30;4.28;;;;;;;;;;5018285;28;20034;-70
2022/04/15 06:03:49;;;;;;;15.90;4.45;;;;;;;;;;5015382;28;20057;-71
2022/04/15 06:06:16;;;;;;;11.95;4.22;;;;;;;;;;5002035;28;20066;-70
2022/04/15 06:08:42;;;;;;;12.13;4.15;;;;;;;;;;5006313;28;20017;-71
2022/04/15 06:11:08;;;;;;;12.27;4.35;;;;;;;;;;5001714;28;20703;-70
2022/04/15 06:13:34;;;;;;;5.07;3.20;;;;;;;;;;5010980;28;20227;-71
2022/04/15 06:16:01;;;;;;;8.15;3.60;;;;;;;;;;5012451;28;20049;-70
2022/04/15 06:18:34;;;;;;;11.50;3.55;;;;;;;;;;5012562;28;20042;-70
2022/04/15 06:21:01;;;;;;;10.43;4.35;;;;;;;;;;5007795;28;20040;-73
2022/04/15 06:23:27;;;;;;;9.95;4.72;;;;;;;;;;5013357;28;20031;-71
2022/04/15 06:25:53;;;;;;;8.32;5.32;;;;;;;;;;5007743;28;20030;-71
2022/04/15 06:28:22;;;;;;;7.25;5.90;;;;;;;;;;5002512;28;20113;-75
2022/04/15 06:30:49;;;;;;;10.07;5.75;;;;;;;;;;5005170;28;20141;-71
2022/04/15 06:33:16;;;;;;;11.98;6.20;;;;;;;;;;5012933;28;20019;-70
2022/04/15 06:35:42;;;;;;;11.95;5.85;;;;;;;;;;5012813;28;20121;-70
2022/04/15 06:38:08;;;;;;;8.35;4.88;;;;;;;;;;5006807;28;20072;-71
2022/04/15 06:40:38;;;;;;;5.43;4.80;;;;;;;;;;5026498;28;20034;-71
2022/04/15 06:43:04;;;;;;;18.10;5.10;;;;;;;;;;5005884;28;20068;-73
2022/04/15 06:45:30;;;;;;;9.57;4.57;;;;;;;;;;5017295;28;20025;-71
2022/04/15 06:47:56;;;;;;;8.48;4.88;;;;;;;;;;5003556;28;20029;-70
2022/04/15 06:50:24;;;;;;;5.97;4.30;;;;;;;;;;5022926;28;20041;-71
2022/04/15 06:52:50;;;;;;;10.00;4.78;;;;;;;;;;5014958;28;20429;-73
2022/04/15 06:55:16;;;;;;;9.50;4.93;;;;;;;;;;5011885;28;20379;-74
2022/04/15 06:57:42;;;;;;;9.50;4.82;;;;;;;;;;5007737;28;20070;-70
2022/04/15 07:00:11;;;;;;;6.68;5.05;;;;;;;;;;5004439;28;20028;-71
2022/04/15 07:02:37;;;;;;;11.80;4.90;;;;;;;;;;5018005;28;20159;-71
2022/04/15 07:05:05;;;;;;;10.02;5.88;;;;;;;;;;4999113;28;20021;-71
2022/04/15 07:07:31;;;;;;;9.52;5.43;;;;;;;;;;5005086;28;20025;-71
2022/04/15 07:09:58;;;;;;;8.70;4.93;;;;;;;;;;5011802;28;20034;-75
2022/04/15 07:12:24;;;;;;;10.02;5.00;;;;;;;;;;5018064;28;20648;-70
2022/04/15 07:14:50;;;;;;;13.88;5.55;;;;;;;;;;5010780;28;20046;-71
2022/04/15 07:17:16;;;;;;;11.40;5.20;;;;;;;;;;5013534;28;20105;-71
2022/04/15 07:19:42;;;;;;;12.25;5.68;;;;;;;;;;5015004;28;20034;-71
2022/04/15 07:22:08;;;;;;;13.32;5.30;;;;;;;;;;5020241;28;20670;-71
2022/04/15 07:24:35;;;;;;;9.50;5.50;;;;;;;;;;5011492;28;20567;-72
2022/04/15 07:27:01;;;;;;;9.15;5.50;;;;;;;;;;5025832;28;20480;-76
2022/04/15 07:29:30;;;;;;;6.97;4.75;;;;;;;;;;5030596;28;20022;-71
2022/04/15 07:31:56;;;;;;;5.07;2.97;;;;;;;;;;5004409;28;20038;-70
2022/04/15 07:34:22;;;;;;;5.68;2.40;;;;;;;;;;5002338;28;20026;-71
2022/04/15 07:36:53;;;;;;;4.68;3.05;;;;;;;;;;5003033;28;20034;-70
2022/04/15 07:39:20;;;;;;;15.83;6.80;;;;;;;;;;5001049;28;20049;-70
2022/04/15 07:41:47;;;;;;;19.00;7.38;;;;;;;;;;5000440;28;20035;-70
2022/04/15 07:44:14;;;;;;;15.45;7.50;;;;;;;;;;5000123;28;20118;-73
2022/04/15 07:46:41;;;;;;;14.88;9.02;;;;;;;;;;5005543;28;20030;-71
2022/04/15 07:49:07;;;;;;;18.88;9.57;;;;;;;;;;5001923;28;20735;-72
2022/04/15 07:51:34;;;;;;;21.95;8.82;;;;;;;;;;4999962;28;20034;-73
2022/04/15 07:54:00;;;;;;;30.50;9.00;;;;;;;;;;5014327;28;20083;-83
2022/04/15 07:56:26;;;;;;;13.32;8.32;;;;;;;;;;5018483;28;20025;-74
2022/04/15 07:58:53;;;;;;;16.00;9.52;;;;;;;;;;5018468;28;20258;-71
2022/04/15 08:01:19;;;;;;;15.60;8.27;;;;;;;;;;5019392;28;20021;-83
2022/04/15 08:03:46;;;;;;;17.83;8.35;;;;;;;;;;5012434;28;20587;-81
2022/04/15 08:06:13;;;;;;;14.73;8.73;;;;;;;;;;5014023;28;20030;-71
2022/04/15 08:08:39;;;;;;;15.65;10.02;;;;;;;;;;5018460;28;20029;-73
2022/04/15 08:11:06;;;;;;;13.52;8.02;;;;;;;;;;5019112;28;20026;-71
2022/04/15 08:13:32;;;;;;;17.27;9.05;;;;;;;;;;5001596;28;20045;-71
2022/04/15 08:15:59;;;;;;;15.93;9.30;;;;;;;;;;4999360;28;20438;-77
2022/04/15 08:18:25;;;;;;;21.60;10.88;;;;;;;;;;5018502;28;20037;-78
2022/04/15 08:20:52;;;;;;;19.98;10.75;;;;;;;;;;5019875;28;20029;-72
2022/04/15 08:23:19;;;;;;;16.55;9.57;;;;;;;;;;5002779;28;20046;-70
2022/04/15 08:25:45;;;;;;;16.92;9.25;;;;;;;;;;5001182;28;20033;-72
2022/04/15 08:28:11;;;;;;;14.63;8.95;;;;;;;;;;5006394;28;20652;-78
2022/04/15 08:30:38;;;;;;;18.45;9.40;;;;;;;;;;5009199;28;20022;-77
2022/04/15 08:33:07;;;;;;;12.80;8.35;;;;;;;;;;4998131;28;20061;-76
2022/04/15 08:35:34;;;;;;;15.82;7.88;;;;;;;;;;4997546;28;20500;-71
2022/04/15 08:38:01;;;;;;;17.13;8.10;;;;;;;;;;5003274;28;20041;-71
2022/04/15 08:40:31;;;;;;;14.63;7.82;;;;;;;;;;4998570;28;20478;-74
2022/04/15 08:42:58;;;;;;;16.77;8.13;;;;;;;;;;4996788;28;20407;-77
2022/04/15 08:45:27;;;;;;;17.02;8.60;;;;;;;;;;4999677;28;20029;-81
2022/04/15 08:48:00;;;;;;;18.58;9.57;;;;;;;;;;5016323;28;20592;-70
2022/04/15 08:50:28;;;;;;;18.58;9.43;;;;;;;;;;5003881;28;20073;-78
2022/04/15 08:52:54;;;;;;;20.55;11.65;;;;;;;;;;5007347;28;20056;-69
2022/04/15 08:55:21;;;;;;;22.33;10.82;;;;;;;;;;5019818;28;20037;-70
2022/04/15 08:57:50;;;;;;;21.00;10.10;;;;;;;;;;5042207;28;20040;-70
2022/04/15 09:00:16;;;;;;;22.38;9.18;;;;;;;;;;5042637;28;20024;-71
2022/04/15 09:02:43;;;;;;;19.00;8.18;;;;;;;;;;5031192;28;20044;-70
2022/04/15 09:05:09;;;;;;;16.63;9.07;;;;;;;;;;5013573;28;20026;-70
2022/04/15 09:07:36;;;;;;;17.75;8.10;;;;;;;;;;5004205;28;20609;-70
2022/04/15 09:10:04;;;;;;;13.82;7.22;;;;;;;;;;5006657;28;20064;-74
2022/04/15 09:12:30;;;;;;;10.90;6.28;;;;;;;;;;5009360;28;20091;-69
2022/04/15 09:15:00;;;;;;;6.68;4.93;;;;;;;;;;5019494;28;20050;-70
2022/04/15 09:17:29;;;;;;;11.18;5.97;;;;;;;;;;5022084;28;20033;-81
2022/04/15 09:19:58;;;;;;;8.10;5.53;;;;;;;;;;5020764;28;20038;-69
2022/04/15 09:22:24;;;;;;;19.23;6.30;;;;;;;;;;5022514;28;20057;-69
2022/04/15 09:24:51;;;;;;;11.50;6.20;;;;;;;;;;5020388;28;20549;-69
2022/04/15 09:27:18;;;;;;;9.60;5.32;;;;;;;;;;5013857;28;20029;-70
2022/04/15 09:29:44;;;;;;;10.50;4.57;;;;;;;;;;5017547;28;20030;-71
2022/04/15 09:32:14;;;;;;;7.78;3.97;;;;;;;;;;5021666;28;20120;-69
2022/04/15 09:34:58;;;;;;;8.85;3.40;;;;;;;;;;5019578;28;20030;-69
2022/04/15 09:37:26;;;;;;;5.70;2.80;;;;;;;;;;5021368;28;20078;-71
2022/04/15 09:40:07;;;;;;;6.65;3.67;;;;;;;;;;5015124;28;20029;-70
2022/04/15 09:42:34;;;;;;;5.60;3.27;;;;;;;;;;5019711;28;20056;-70
2022/04/15 09:45:14;;;;;;;4.15;2.28;;;;;;;;;;5004076;28;20021;-74
2022/04/15 09:47:40;;;;;;;4.15;2.28;;;;;;;;;;5008860;28;20033;-70
2022/04/15 09:50:22;;;;;;;5.25;3.10;;;;;;;;;;5010578;28;20026;-70
2022/04/15 09:52:49;;;;;;;6.15;2.97;;;;;;;;;;5011912;28;20025;-74
2022/04/15 09:55:19;;;;;;;6.57;3.33;;;;;;;;;;5009450;28;20079;-70
2022/04/15 09:57:46;;;;;;;5.70;3.55;;;;;;;;;;5003542;28;20084;-71
2022/04/15 10:00:13;;;;;;;6.60;3.75;;;;;;;;;;5011236;28;20238;-69
2022/04/15 10:02:39;;;;;;;6.15;3.63;;;;;;;;;;5020480;28;20116;-70
2022/04/15 10:05:06;;;;;;;8.23;4.05;;;;;;;;;;5020396;28;20057;-70
2022/04/15 10:07:34;;;;;;;5.25;3.15;;;;;;;;;;5018662;28;20586;-69
2022/04/15 10:10:01;;;;;;;8.50;4.13;;;;;;;;;;5004794;28;20026;-69
2022/04/15 10:12:28;;;;;;;5.10;3.65;;;;;;;;;;5013029;28;20033;-69
2022/04/15 10:14:55;;;;;;;6.07;3.75;;;;;;;;;;5006721;28;20061;-70
2022/04/15 10:17:23;;;;;;;5.53;2.85;;;;;;;;;;5007668;28;20033;-70
2022/04/15 10:19:49;;;;;;;5.97;2.65;;;;;;;;;;5014222;28;20474;-69
2022/04/15 10:22:16;;;;;;;5.30;2.97;;;;;;;;;;5004888;28;20026;-72
2022/04/15 10:24:43;;;;;;;4.90;3.05;;;;;;;;;;5005536;28;20033;-71
2022/04/15 10:27:12;;;;;;;6.22;3.65;;;;;;;;;;5000912;28;20034;-69
2022/04/15 10:29:38;;;;;;;7.75;4.30;;;;;;;;;;5001812;28;20076;-70
2022/04/15 10:32:12;;;;;;;5.40;3.80;;;;;;;;;;5001169;28;20096;-70
2022/04/15 10:34:48;;;;;;;9.07;4.18;;;;;;;;;;5002567;28;20034;-73
2022/04/15 10:37:15;;;;;;;7.45;4.07;;;;;;;;;;5008550;28;20025;-70
2022/04/15 10:39:47;;;;;;;7.88;4.30;;;;;;;;;;5008350;28;20021;-69
2022/04/15 10:42:17;;;;;;;5.70;4.22;;;;;;;;;;5012732;28;20589;-70
2022/04/15 10:44:44;;;;;;;11.95;4.20;;;;;;;;;;4999011;28;20046;-70
2022/04/15 10:47:29;;;;;;;6.95;4.20;;;;;;;;;;5006445;28;20147;-69
2022/04/15 10:50:03;;;;;;;6.80;3.90;;;;;;;;;;5016950;28;20030;-72
2022/04/15 10:52:30;;;;;;;6.55;3.88;;;;;;;;;;5007872;28;20026;-69
2022/04/15 10:55:02;;;;;;;9.50;3.58;;;;;;;;;;5000645;28;20132;-70
2022/04/15 10:57:48;;;;;;;6.95;3.28;;;;;;;;;;5002628;28;20041;-74
2022/04/15 11:02:58;;;;;;;4.88;3.13;;;;;;;;;;5011775;28;20072;-71
2022/04/15 11:05:55;;;;;;;5.35;3.30;;;;;;;;;;5005620;28;20094;-69
2022/04/15 11:08:22;;;;;;;11.63;2.97;;;;;;;;;;4994820;28;20053;-68
2022/04/15 11:10:55;;;;;;;6.65;2.63;;;;;;;;;;5008166;28;20053;-68
2022/04/15 11:13:24;;;;;;;7.22;3.38;;;;;;;;;;5015031;28;20033;-72
2022/04/15 11:16:06;;;;;;;3.47;2.65;;;;;;;;;;5018756;28;20041;-72
2022/04/15 11:18:50;;;;;;;6.40;3.72;;;;;;;;;;5006572;28;20042;-72
2022/04/15 11:21:23;;;;;;;11.02;3.50;;;;;;;;;;4999286;28;20025;-69
2022/04/15 11:23:51;;;;;;;6.45;3.00;;;;;;;;;;5007470;28;20120;-70
2022/04/15 11:26:18;;;;;;;4.68;3.10;;;;;;;;;;5012928;28;20108;-70
2022/04/15 11:28:45;;;;;;;6.05;3.05;;;;;;;;;;5012520;28;20187;-70
2022/04/15 11:31:25;;;;;;;4.03;2.70;;;;;;;;;;5012874;28;20043;-74
2022/04/15 11:33:52;;;;;;;4.50;3.13;;;;;;;;;;5010216;28;20052;-73
2022/04/15 11:36:19;;;;;;;7.25;3.85;;;;;;;;;;5003212;28;20022;-69
2022/04/15 11:38:46;;;;;;;5.05;2.67;;;;;;;;;;5015806;28;20041;-70
2022/04/15 11:41:22;;;;;;;4.85;3.08;;;;;;;;;;5023719;28;20021;-72
2022/04/15 11:43:56;;;;;;;29.40;26.00;;;;;;;;;;5008770;28;20037;-71
2022/04/15 11:46:22;;;;;;;294.00;209.48;;;;;;;;;;5010449;28;20794;-70
2022/04/15 11:48:50;;;;;;;236.52;155.18;;;;;;;;;;5015000;28;20040;-70
2022/04/15 11:51:22;;;;;;;60.28;46.10;;;;;;;;;;5017714;28;20018;-70
2022/04/15 11:53:49;;;;;;;32.33;24.30;;;;;;;;;;5012217;28;20044;-68
2022/04/15 11:56:15;;;;;;;230.00;135.30;;;;;;;;;;5009091;28;20045;-69
2022/04/15 11:58:43;;;;;;;115.20;80.00;;;;;;;;;;5002567;28;20037;-69
2022/04/15 12:01:09;;;;;;;85.82;54.20;;;;;;;;;;5009732;28;20034;-69
2022/04/15 12:03:41;;;;;;;25.73;15.00;;;;;;;;;;5016005;28;20040;-69
2022/04/15 12:06:09;;;;;;;7.10;4.60;;;;;;;;;;5015101;28;20021;-70
2022/04/15 12:08:35;;;;;;;8.70;3.72;;;;;;;;;;5012499;28;20029;-69
2022/04/15 12:11:03;;;;;;;6.13;3.17;;;;;;;;;;5006519;28;20029;-69
2022/04/15 12:13:29;;;;;;;5.68;3.25;;;;;;;;;;5006145;28;20025;-70
2022/04/15 12:15:55;;;;;;;6.93;3.40;;;;;;;;;;5008416;28;20053;-72
2022/04/15 12:18:21;;;;;;;6.47;3.35;;;;;;;;;;5007233;28;20049;-75
2022/04/15 12:20:48;;;;;;;5.25;3.28;;;;;;;;;;5003727;28;20053;-73
2022/04/15 12:23:15;;;;;;;5.10;3.67;;;;;;;;;;5007127;28;20516;-70
2022/04/15 12:31:31;;;;;;;10.98;5.68;;;;;;;;;;5017822;28;20112;-69
2022/04/15 12:33:57;;;;;;;6.53;4.90;;;;;;;;;;5006655;28;20041;-70
2022/04/15 12:36:23;;;;;;;5.78;3.50;;;;;;;;;;5017193;28;20037;-70
2022/04/15 12:39:03;;;;;;;4.95;2.97;;;;;;;;;;5021835;28;20049;-70
2022/04/15 12:41:39;;;;;;;4.28;2.97;;;;;;;;;;5005423;28;20037;-71
2022/04/15 12:44:27;;;;;;;10.32;3.30;;;;;;;;;;5017931;28;20026;-69
2022/04/15 12:47:16;;;;;;;6.38;2.85;;;;;;;;;;5014208;28;20033;-70
2022/04/15 12:49:42;;;;;;;4.75;2.85;;;;;;;;;;5013482;28;20135;-74
2022/04/15 12:52:19;;;;;;;5.70;2.90;;;;;;;;;;5012602;28;20445;-72
2022/04/15 12:55:14;;;;;;;4.68;2.70;;;;;;;;;;5002002;28;20092;-69
2022/04/15 12:57:41;;;;;;;5.40;2.70;;;;;;;;;;4994565;28;20114;-70
2022/04/15 13:00:11;;;;;;;3.35;2.72;;;;;;;;;;5008143;28;20033;-74
2022/04/15 13:02:37;;;;;;;3.03;2.40;;;;;;;;;;5015494;28;20041;-70
2022/04/15 13:05:06;;;;;;;9.38;2.90;;;;;;;;;;5009846;28;20033;-71
2022/04/15 13:07:32;;;;;;;3.60;2.42;;;;;;;;;;5016097;28;20028;-71
2022/04/15 13:09:59;;;;;;;5.72;2.97;;;;;;;;;;5006628;28;20033;-72
2022/04/15 13:12:25;;;;;;;7.03;3.25;;;;;;;;;;5018561;28;20030;-70
2022/04/15 13:14:53;;;;;;;5.53;2.90;;;;;;;;;;5020195;28;20079;-70
2022/04/15 13:17:19;;;;;;;4.95;2.53;;;;;;;;;;5022210;28;20026;-69
2022/04/15 13:19:45;;;;;;;3.72;2.40;;;;;;;;;;5004877;28;20053;-69
2022/04/15 13:22:13;;;;;;;4.50;2.85;;;;;;;;;;5016272;28;20037;-70
2022/04/15 13:24:39;;;;;;;5.05;2.80;;;;;;;;;;5006436;28;20119;-70
2022/04/15 13:27:05;;;;;;;4.10;2.72;;;;;;;;;;5009826;28;20056;-70
2022/04/15 13:29:32;;;;;;;4.88;2.70;;;;;;;;;;5013738;28;20049;-70
2022/04/15 13:31:58;;;;;;;16.70;3.25;;;;;;;;;;5003015;28;20030;-69
2022/04/15 13:34:25;;;;;;;6.72;2.97;;;;;;;;;;5005433;28;20579;-69
2022/04/15 13:36:51;;;;;;;4.60;2.58;;;;;;;;;;5020869;28;20508;-69
2022/04/15 13:39:17;;;;;;;7.63;3.28;;;;;;;;;;5021183;28;20090;-69
2022/04/15 13:41:44;;;;;;;5.50;2.58;;;;;;;;;;5002449;28;20040;-70
2022/04/15 13:44:12;;;;;;;5.50;3.00;;;;;;;;;;5007433;28;20037;-69
2022/04/15 13:46:38;;;;;;;6.35;2.70;;;;;;;;;;5019714;28;20083;-75
2022/04/15 13:49:04;;;;;;;3.42;2.33;;;;;;;;;;5021190;28;20031;-71
2022/04/15 13:51:32;;;;;;;8.05;2.83;;;;;;;;;;5019521;28;20029;-71
2022/04/15 13:56:44;;;;;;;4.18;2.40;;;;;;;;;;5003236;28;20524;-72
2022/04/15 13:59:11;;;;;;;8.85;2.58;;;;;;;;;;5008557;28;20088;-70
2022/04/15 14:01:39;;;;;;;6.20;2.92;;;;;;;;;;5001639;28;20024;-70
2022/04/15 14:04:12;;;;;;;4.45;2.63;;;;;;;;;;5002688;28;20036;-70
2022/04/15 14:06:39;;;;;;;5.88;2.78;;;;;;;;;;5000538;28;20022;-73
2022/04/15 14:09:06;;;;;;;6.07;3.30;;;;;;;;;;5009961;28;20084;-71
2022/04/15 14:11:35;;;;;;;15.25;3.95;;;;;;;;;;5021368;28;20083;-70
2022/04/15 14:14:05;;;;;;;6.70;3.33;;;;;;;;;;5019769;28;20029;-71
2022/04/15 14:16:32;;;;;;;8.00;3.53;;;;;;;;;;5007488;28;20406;-70
2022/04/15 14:18:58;;;;;;;5.93;3.05;;;;;;;;;;5012442;28;20037;-69
2022/04/15 14:21:25;;;;;;;4.05;2.60;;;;;;;;;;5020461;28;20084;-70
2022/04/15 14:23:51;;;;;;;4.25;2.55;;;;;;;;;;5019975;28;20069;-69
2022/04/15 14:26:18;;;;;;;7.47;2.50;;;;;;;;;;5019210;28;20095;-70
2022/04/15 14:28:44;;;;;;;6.57;2.50;;;;;;;;;;5011553;28;20044;-69
2022/04/15 14:31:11;;;;;;;4.63;2.50;;;;;;;;;;5016183;28;20430;-69
2022/04/15 14:33:39;;;;;;;4.18;2.20;;;;;;;;;;5017189;28;20604;-71
2022/04/15 14:36:05;;;;;;;3.50;2.78;;;;;;;;;;5001251;28;20083;-70
2022/04/15 14:38:32;;;;;;;5.03;3.20;;;;;;;;;;5001314;28;20042;-70
2022/04/15 14:41:00;;;;;;;8.02;3.50;;;;;;;;;;4999616;28;20072;-70
2022/04/15 14:43:26;;;;;;;4.90;2.88;;;;;;;;;;5002068;28;20034;-77
2022/04/15 14:45:54;;;;;;;5.70;3.42;;;;;;;;;;5005468;28;20420;-70
2022/04/15 14:48:20;;;;;;;6.97;4.10;;;;;;;;;;5012537;28;20437;-69
2022/04/15 14:50:46;;;;;;;11.23;6.40;;;;;;;;;;5005842;28;20400;-70
2022/04/15 14:53:13;;;;;;;8.80;6.85;;;;;;;;;;5008307;28;20032;-74